Airfield :
LOGIN :

Register | Disclaimer

   EN    FR    IT 

 










Legend :    VFR   Marginal VFR   IFR   Intensive IFR   Very Intensive IFR
Visi :
Ceiling :
>= 8 km
>= 3000ft
5 to 8 km
1000 to 3000 ft
1500m to 5 km
500 to 1000 ft
800 to 1500m
200 to 500 ft
< 800m
< 200 ft
Symbols :   Thunderstorms  Fog  Heavy snow  Heavy precipitations  Wind > 20 kt
SIGMETs :     Misc.  Thunderstorms  Icing  Turbulence  Mountain Waves  Volcanic Ashes







- Airport Elevation : 609 ft
- IATA code : BJZ


LEBZ - Badajoz

CURRENT METAR :
  • 231400Z 27016KT 9999 FEW030CB SCT045 12/02 Q1012

EXPIRED METARs :
  • 231300Z 28013KT 250V310 9999 FEW030TCU SCT045 13/00 Q1013
  • 231200Z 29010KT 260V330 9999 FEW030TCU SCT040 11/02 Q1013
  • 231100Z 30008KT 250V340 9999 FEW030 SCT035 11/03 Q1014

TAF TAF LEBZ
Valid from the 23 at 12:00 until the 24 at 12:00 UTC


231100Z 2312/2412 26009KT 9999 SCT030 TX14/2316Z TN04/2406Z
PROB40
TEMPO 2312/2412 20019KT 3000 SHRA FEW010TCU BKN014
No reported NOTAMs for that airfield.



MET'MAP, your aeronautical weather chart ! - Copyright ORBIFLY December 2007 - Disclaimer

ORBIFLY MET'MAP TEAM :

Programming & Development : Alexandra Zaïnal
Concept & Development : Baudouin d'Aumeries
Co-Development & Prog : Marc-Olivier Méhu
Technical & hardware support : Manuel Goepfert

Contact : metmap@orbifly.com




SOURCES & CREDITS :

   NOAA